Time;durP1;ratioP1;P1;durP2;ratioP2;P2;SDS_P1;SDS_P2;PMS_P1;PMS_P2;Temp;Humidity;BMP_temperature;BMP_pressure;BME280_temperature;BME280_humidity;BME280_pressure;Samples;Min_cycle;Max_cycle;Signal;HPM_P1;HPM_P2
2021/10/29 00:02:26;;;;;;;56.30;48.80;;;6.90;99.90;;;;;;5073005;28;20447;-74
2021/10/29 00:04:54;;;;;;;53.53;47.70;;;6.90;99.90;;;;;;5072521;28;20486;-74
2021/10/29 00:07:21;;;;;;;56.70;48.20;;;6.90;99.90;;;;;;5072896;28;20900;-74
2021/10/29 00:09:48;;;;;;;58.63;46.87;;;6.90;99.90;;;;;;5072771;28;20967;-74
2021/10/29 00:12:15;;;;;;;64.43;51.80;;;6.90;99.90;;;;;;5072758;28;20454;-74
2021/10/29 00:14:43;;;;;;;67.33;51.47;;;6.90;99.90;;;;;;5072838;28;20451;-74
2021/10/29 00:17:09;;;;;;;60.13;50.50;;;6.90;99.90;;;;;;5072574;28;20446;-74
2021/10/29 00:19:37;;;;;;;62.17;52.60;;;6.90;99.90;;;;;;5072225;28;20439;-74
2021/10/29 00:22:04;;;;;;;56.80;50.17;;;6.80;99.90;;;;;;5072646;28;20454;-74
2021/10/29 00:24:31;;;;;;;56.93;48.70;;;6.80;99.90;;;;;;5072484;28;20470;-74
2021/10/29 00:26:58;;;;;;;56.00;49.90;;;6.80;99.90;;;;;;5072199;28;20837;-74
2021/10/29 00:29:25;;;;;;;55.07;47.73;;;6.80;99.90;;;;;;5072435;28;20492;-73
2021/10/29 00:31:53;;;;;;;53.90;48.07;;;6.70;99.90;;;;;;5072184;28;20459;-73
2021/10/29 00:34:20;;;;;;;60.50;52.47;;;6.70;99.90;;;;;;5072190;28;20454;-73
2021/10/29 00:36:47;;;;;;;54.53;48.00;;;6.60;99.90;;;;;;5072433;28;20534;-73
2021/10/29 00:39:14;;;;;;;53.30;47.60;;;6.60;99.90;;;;;;5072041;28;20448;-73
2021/10/29 00:41:41;;;;;;;52.03;47.03;;;6.50;99.90;;;;;;5071888;28;20898;-72
2021/10/29 00:44:08;;;;;;;53.43;47.30;;;6.60;99.90;;;;;;5072027;28;20457;-72
2021/10/29 00:46:35;;;;;;;53.77;45.57;;;6.50;99.90;;;;;;5072112;28;20454;-72
2021/10/29 00:49:03;;;;;;;49.93;44.90;;;6.50;99.90;;;;;;5072057;28;20488;-73
2021/10/29 00:51:30;;;;;;;51.10;45.80;;;6.50;99.90;;;;;;5072178;28;20457;-73
2021/10/29 00:53:57;;;;;;;52.93;47.40;;;6.40;99.90;;;;;;5071708;28;20455;-73
2021/10/29 00:56:23;;;;;;;52.90;47.53;;;6.40;99.90;;;;;;5071764;28;21099;-74
2021/10/29 00:58:50;;;;;;;50.90;45.80;;;6.30;99.90;;;;;;5071889;28;20447;-74
2021/10/29 01:01:17;;;;;;;54.20;48.43;;;6.30;99.90;;;;;;5071642;28;20459;-73
2021/10/29 01:03:44;;;;;;;52.33;46.73;;;6.30;99.90;;;;;;5071670;28;20458;-74
2021/10/29 01:06:13;;;;;;;51.07;46.27;;;6.30;99.90;;;;;;5071829;28;20470;-73
2021/10/29 01:08:41;;;;;;;49.03;44.40;;;6.30;99.90;;;;;;5071663;28;20522;-73
2021/10/29 01:11:12;;;;;;;53.53;46.00;;;6.30;99.90;;;;;;5070287;28;20593;-73
2021/10/29 01:13:39;;;;;;;49.60;44.20;;;6.30;99.90;;;;;;5071729;28;20454;-73
2021/10/29 01:16:07;;;;;;;50.00;43.80;;;6.30;99.90;;;;;;5071441;28;20461;-74
2021/10/29 01:18:33;;;;;;;50.60;45.60;;;6.30;99.90;;;;;;5071743;28;20462;-74
2021/10/29 01:21:01;;;;;;;53.33;47.40;;;6.20;99.90;;;;;;5071163;28;20457;-74
2021/10/29 01:23:28;;;;;;;54.53;49.37;;;6.20;99.90;;;;;;5071340;28;20473;-73
2021/10/29 01:26:01;;;;;;;54.10;48.50;;;6.10;99.90;;;;;;5071208;28;20461;-74
2021/10/29 01:28:28;;;;;;;53.70;48.10;;;6.10;99.90;;;;;;5071169;28;20451;-74
2021/10/29 01:30:54;;;;;;;52.47;46.87;;;6.10;99.90;;;;;;5071084;28;20495;-74
2021/10/29 01:33:21;;;;;;;53.30;47.20;;;6.10;99.90;;;;;;5070931;28;20448;-74
2021/10/29 01:35:48;;;;;;;53.97;48.03;;;6.00;99.90;;;;;;5071260;28;20457;-74
2021/10/29 01:38:16;;;;;;;52.77;47.03;;;6.00;99.90;;;;;;5071022;28;20459;-75
2021/10/29 01:40:44;;;;;;;53.40;48.10;;;5.90;99.90;;;;;;5070937;28;20453;-75
2021/10/29 01:43:10;;;;;;;56.27;47.63;;;5.90;99.90;;;;;;5071068;28;20458;-74
2021/10/29 01:45:37;;;;;;;51.37;46.07;;;5.90;99.90;;;;;;5070854;28;20454;-74
2021/10/29 01:48:04;;;;;;;50.30;44.90;;;5.90;99.90;;;;;;5070594;28;20958;-74
2021/10/29 01:50:31;;;;;;;52.97;47.47;;;5.90;99.90;;;;;;5070822;28;20486;-74
2021/10/29 01:52:57;;;;;;;52.37;47.27;;;5.80;99.90;;;;;;5070700;28;20449;-74
2021/10/29 01:55:26;;;;;;;53.43;48.00;;;5.80;99.90;;;;;;5070435;28;20444;-75
2021/10/29 01:57:52;;;;;;;52.40;47.20;;;5.80;99.90;;;;;;5070891;28;20465;-75
2021/10/29 02:00:19;;;;;;;52.83;47.10;;;5.80;99.90;;;;;;5070799;28;20447;-73
2021/10/29 02:02:46;;;;;;;53.37;47.97;;;5.70;99.90;;;;;;5070722;28;20458;-75
2021/10/29 02:05:13;;;;;;;54.03;48.30;;;5.70;99.90;;;;;;5070682;28;20449;-74
2021/10/29 02:07:40;;;;;;;51.43;46.33;;;5.60;99.90;;;;;;5070683;28;21017;-74
2021/10/29 02:10:07;;;;;;;54.23;48.77;;;5.60;99.90;;;;;;5070384;28;20610;-74
2021/10/29 02:12:35;;;;;;;54.47;48.67;;;5.60;99.90;;;;;;5070627;28;20455;-74
2021/10/29 02:15:03;;;;;;;54.83;49.07;;;5.70;99.90;;;;;;5070797;28;20454;-74
2021/10/29 02:17:31;;;;;;;57.20;46.63;;;5.70;99.90;;;;;;5070537;28;20463;-74
2021/10/29 02:19:58;;;;;;;53.20;47.77;;;5.70;99.90;;;;;;5070446;28;20558;-74
2021/10/29 02:22:26;;;;;;;54.40;48.57;;;5.70;99.90;;;;;;5070080;28;20450;-73
2021/10/29 02:24:53;;;;;;;53.33;47.53;;;5.70;99.90;;;;;;5070497;28;20550;-74
2021/10/29 02:27:19;;;;;;;56.13;47.77;;;5.60;99.90;;;;;;5070256;28;20859;-74
2021/10/29 02:29:47;;;;;;;51.67;44.13;;;5.60;99.90;;;;;;5070467;28;20489;-74
2021/10/29 02:32:14;;;;;;;53.53;47.87;;;5.60;99.90;;;;;;5070586;28;20465;-74
2021/10/29 02:34:41;;;;;;;54.07;48.30;;;5.60;99.90;;;;;;5070376;28;20943;-73
2021/10/29 02:37:08;;;;;;;48.27;43.47;;;5.60;99.90;;;;;;5070144;28;20500;-73
2021/10/29 02:39:34;;;;;;;56.00;48.43;;;5.60;99.90;;;;;;5070122;28;20454;-74
2021/10/29 02:42:04;;;;;;;51.77;44.90;;;5.50;99.90;;;;;;5070333;28;20882;-74
2021/10/29 02:44:31;;;;;;;53.83;48.60;;;5.50;99.90;;;;;;5070503;28;20456;-73
2021/10/29 02:46:59;;;;;;;49.70;44.70;;;5.50;99.90;;;;;;5070045;28;20456;-74
2021/10/29 02:49:26;;;;;;;50.63;45.37;;;5.40;99.90;;;;;;5070286;28;20442;-74
2021/10/29 02:51:53;;;;;;;51.27;45.30;;;5.40;99.90;;;;;;5069960;28;20456;-73
2021/10/29 02:54:20;;;;;;;53.67;48.23;;;5.40;99.90;;;;;;5069965;28;20448;-74
2021/10/29 02:56:47;;;;;;;52.03;46.80;;;5.40;99.90;;;;;;5070572;28;20449;-73
2021/10/29 02:59:13;;;;;;;51.63;46.40;;;5.40;99.90;;;;;;5070059;28;20458;-73
2021/10/29 03:01:40;;;;;;;52.20;46.80;;;5.30;99.90;;;;;;5069848;28;20447;-74
2021/10/29 03:04:08;;;;;;;51.27;46.00;;;5.30;99.90;;;;;;5069878;28;20451;-74
2021/10/29 03:06:35;;;;;;;53.60;48.50;;;5.30;99.90;;;;;;5070316;28;20451;-74
2021/10/29 03:09:02;;;;;;;51.30;46.23;;;5.30;99.90;;;;;;5070264;28;20479;-75
2021/10/29 03:11:29;;;;;;;50.17;45.20;;;5.20;99.90;;;;;;5069899;28;20499;-75
2021/10/29 03:13:56;;;;;;;50.47;45.70;;;5.20;99.90;;;;;;5069838;28;20967;-74
2021/10/29 03:16:22;;;;;;;47.97;43.57;;;5.10;99.90;;;;;;5069772;28;20452;-74
2021/10/29 03:18:49;;;;;;;51.43;46.27;;;5.10;99.90;;;;;;5069896;28;20460;-75
2021/10/29 03:21:17;;;;;;;50.37;45.17;;;5.00;99.90;;;;;;5070229;28;20452;-75
2021/10/29 03:23:44;;;;;;;57.77;49.40;;;5.00;99.90;;;;;;5069829;28;20872;-74
2021/10/29 03:26:11;;;;;;;59.03;51.50;;;4.90;99.90;;;;;;5069277;28;20538;-75
2021/10/29 03:28:38;;;;;;;64.47;51.60;;;4.90;99.90;;;;;;5069793;28;20459;-75
2021/10/29 03:31:05;;;;;;;61.13;51.03;;;4.90;99.90;;;;;;5069730;28;20858;-73
2021/10/29 03:33:36;;;;;;;72.67;55.00;;;4.90;99.90;;;;;;5069917;28;20448;-74
2021/10/29 03:36:04;;;;;;;60.30;52.33;;;4.80;99.90;;;;;;5073092;28;20863;-73
2021/10/29 03:38:44;;;;;;;61.77;50.33;;;4.80;99.90;;;;;;5073405;28;20455;-74
2021/10/29 03:41:15;;;;;;;70.80;53.77;;;4.80;99.90;;;;;;5073519;28;20511;-74
2021/10/29 03:43:45;;;;;;;71.47;51.00;;;4.80;99.90;;;;;;5073495;28;20522;-74
2021/10/29 03:46:15;;;;;;;57.60;51.70;;;4.70;99.90;;;;;;5073121;28;20460;-74
2021/10/29 03:48:49;;;;;;;53.17;47.50;;;4.70;99.90;;;;;;5072946;28;20458;-75
2021/10/29 03:51:20;;;;;;;53.93;48.03;;;4.70;99.90;;;;;;5073155;28;20479;-73
2021/10/29 03:53:51;;;;;;;58.63;48.53;;;4.70;99.90;;;;;;5073131;28;20895;-73
2021/10/29 03:56:19;;;;;;;52.23;44.47;;;4.70;99.90;;;;;;5073071;28;20514;-72
2021/10/29 03:58:47;;;;;;;55.07;47.30;;;4.70;99.90;;;;;;5072873;28;20528;-72
2021/10/29 04:01:15;;;;;;;54.57;47.30;;;4.70;99.90;;;;;;5072543;28;20805;-74
2021/10/29 04:03:42;;;;;;;50.10;44.70;;;4.70;99.90;;;;;;5072822;28;20444;-74
2021/10/29 04:06:09;;;;;;;53.43;47.93;;;4.70;99.90;;;;;;5072638;28;20937;-74
2021/10/29 04:08:36;;;;;;;54.87;48.90;;;4.70;99.90;;;;;;5072505;28;20439;-73
2021/10/29 04:11:05;;;;;;;62.63;48.30;;;4.70;99.90;;;;;;5072574;28;20887;-75
2021/10/29 04:13:36;;;;;;;58.50;48.67;;;4.70;99.90;;;;;;5073052;28;20506;-75
2021/10/29 04:16:03;;;;;;;50.33;45.50;;;4.70;99.90;;;;;;5072907;28;20446;-75
2021/10/29 04:18:31;;;;;;;49.60;44.70;;;4.70;99.90;;;;;;5072765;28;20447;-76
2021/10/29 04:20:58;;;;;;;52.60;47.10;;;4.70;99.90;;;;;;5072511;28;20501;-75
2021/10/29 04:23:25;;;;;;;52.00;46.43;;;4.70;99.90;;;;;;5072318;28;20536;-76
2021/10/29 04:25:52;;;;;;;50.83;45.40;;;4.70;99.90;;;;;;5072204;28;20448;-76
2021/10/29 04:28:20;;;;;;;55.90;48.77;;;4.80;99.90;;;;;;5072323;28;20483;-76
2021/10/29 04:30:47;;;;;;;51.60;45.93;;;4.80;99.90;;;;;;5072518;28;20483;-76
2021/10/29 04:33:15;;;;;;;47.17;42.77;;;4.80;99.90;;;;;;5072102;28;20447;-75
2021/10/29 04:35:45;;;;;;;51.90;46.80;;;4.80;99.90;;;;;;5072095;28;20446;-75
2021/10/29 04:38:13;;;;;;;52.37;47.13;;;4.70;99.90;;;;;;5072124;28;20458;-75
2021/10/29 04:40:42;;;;;;;56.80;48.97;;;4.70;99.90;;;;;;5071967;28;20525;-75
2021/10/29 04:43:10;;;;;;;50.67;45.77;;;4.70;99.90;;;;;;5071802;28;20461;-74
2021/10/29 04:45:39;;;;;;;54.63;49.30;;;4.80;99.90;;;;;;5072228;28;20791;-75
2021/10/29 04:48:06;;;;;;;58.23;52.40;;;4.70;99.90;;;;;;5071839;28;20452;-75
2021/10/29 04:50:33;;;;;;;58.10;52.50;;;4.70;99.90;;;;;;5072019;28;20538;-75
2021/10/29 04:53:00;;;;;;;59.37;49.40;;;4.70;99.90;;;;;;5071952;28;20447;-76
2021/10/29 04:55:27;;;;;;;58.03;47.17;;;4.60;99.90;;;;;;5071780;28;20440;-75
2021/10/29 04:57:54;;;;;;;54.27;49.10;;;4.60;99.90;;;;;;5071767;28;20452;-74
2021/10/29 05:00:23;;;;;;;56.13;50.03;;;4.70;99.90;;;;;;5071510;28;20932;-74
2021/10/29 05:02:51;;;;;;;47.37;42.67;;;4.70;99.90;;;;;;5071840;28;20455;-74
2021/10/29 05:05:18;;;;;;;48.50;43.97;;;4.60;99.90;;;;;;5071829;28;20961;-75
2021/10/29 05:07:45;;;;;;;50.70;45.83;;;4.60;99.90;;;;;;5071564;28;20447;-74
2021/10/29 05:10:12;;;;;;;50.33;45.13;;;4.60;99.90;;;;;;5071246;28;20458;-73
2021/10/29 05:12:38;;;;;;;81.03;59.67;;;4.60;99.90;;;;;;5071660;28;20443;-73
2021/10/29 05:15:06;;;;;;;78.23;56.20;;;4.50;99.90;;;;;;5071426;28;20457;-74
2021/10/29 05:17:33;;;;;;;80.50;60.37;;;4.50;99.90;;;;;;5071594;28;20464;-75
2021/10/29 05:20:03;;;;;;;76.10;56.33;;;4.50;99.90;;;;;;5071235;28;20450;-75
2021/10/29 05:22:29;;;;;;;67.00;56.83;;;4.40;99.90;;;;;;5071275;28;20509;-76
2021/10/29 05:24:56;;;;;;;54.97;49.30;;;4.40;99.90;;;;;;5071024;28;20455;-77
2021/10/29 05:27:23;;;;;;;58.07;52.20;;;4.40;99.90;;;;;;5071174;28;20885;-75
2021/10/29 05:29:49;;;;;;;50.07;45.57;;;4.40;99.90;;;;;;5071190;28;20481;-75
2021/10/29 05:32:16;;;;;;;47.97;43.10;;;4.30;99.90;;;;;;5071160;28;20479;-75
2021/10/29 05:34:43;;;;;;;49.63;45.33;;;4.30;99.90;;;;;;5070896;28;20454;-75
2021/10/29 05:37:11;;;;;;;46.27;42.17;;;4.30;99.90;;;;;;5070891;28;20453;-75
2021/10/29 05:39:37;;;;;;;45.93;42.10;;;4.30;99.90;;;;;;5070687;28;20959;-75
2021/10/29 05:42:05;;;;;;;48.37;44.10;;;4.40;99.90;;;;;;5071225;28;20796;-75
2021/10/29 05:44:31;;;;;;;44.27;40.57;;;4.30;99.90;;;;;;5071048;28;20449;-74
2021/10/29 05:46:58;;;;;;;45.37;41.40;;;4.40;99.90;;;;;;5070854;28;20447;-75
2021/10/29 05:49:25;;;;;;;43.10;39.57;;;4.40;99.90;;;;;;5070807;28;20556;-74
2021/10/29 05:51:53;;;;;;;44.23;40.53;;;4.40;99.90;;;;;;5070340;28;20479;-75
2021/10/29 05:54:51;;;;;;;45.03;41.43;;;4.40;99.90;;;;;;5071070;28;20508;-74
2021/10/29 05:57:17;;;;;;;45.57;41.97;;;4.40;99.90;;;;;;5070448;28;20461;-74
2021/10/29 05:59:44;;;;;;;45.07;41.13;;;4.30;99.90;;;;;;5070845;28;20941;-74
2021/10/29 06:02:11;;;;;;;40.10;37.20;;;4.20;99.90;;;;;;5070321;28;20849;-75
2021/10/29 06:04:38;;;;;;;44.80;41.07;;;4.20;99.90;;;;;;5070697;28;20466;-74
2021/10/29 06:07:05;;;;;;;39.63;36.53;;;4.20;99.90;;;;;;5070605;28;20814;-75
2021/10/29 06:09:33;;;;;;;44.40;40.67;;;4.10;99.90;;;;;;5070557;28;20863;-75
2021/10/29 06:12:00;;;;;;;43.17;39.30;;;4.10;99.90;;;;;;5070610;28;20501;-75
2021/10/29 06:14:27;;;;;;;45.10;41.00;;;4.20;99.90;;;;;;5070374;28;20475;-75
2021/10/29 06:16:56;;;;;;;41.60;38.57;;;4.30;99.90;;;;;;5070515;28;20455;-75
2021/10/29 06:19:23;;;;;;;44.23;40.13;;;4.20;99.90;;;;;;5070608;28;20504;-76
2021/10/29 06:21:55;;;;;;;43.53;40.00;;;4.20;99.90;;;;;;5070307;28;20454;-75
2021/10/29 06:24:23;;;;;;;41.73;38.23;;;4.20;99.90;;;;;;5070088;28;20482;-76
2021/10/29 06:26:55;;;;;;;44.10;40.77;;;4.20;99.90;;;;;;5070113;28;20492;-74
2021/10/29 06:29:21;;;;;;;43.00;39.37;;;4.20;99.90;;;;;;5070355;28;20934;-75
2021/10/29 06:31:48;;;;;;;39.83;36.40;;;4.20;99.90;;;;;;5070530;28;20491;-75
2021/10/29 06:34:15;;;;;;;41.50;38.00;;;4.20;99.90;;;;;;5070442;28;20458;-74
2021/10/29 06:36:42;;;;;;;43.50;39.70;;;4.30;99.90;;;;;;5070205;28;20461;-75
2021/10/29 06:39:09;;;;;;;41.63;38.30;;;4.30;99.90;;;;;;5070360;28;20473;-75
2021/10/29 06:41:36;;;;;;;44.30;40.57;;;4.40;99.90;;;;;;5070278;28;20524;-75
2021/10/29 06:44:23;;;;;;;45.13;41.23;;;4.40;99.90;;;;;;5070653;28;20542;-75
2021/10/29 06:47:10;;;;;;;48.60;44.40;;;4.40;99.90;;;;;;5070445;28;20451;-75
2021/10/29 07:00:38;;;;;;;47.70;43.40;;;5.10;99.90;;;;;;5070226;28;20945;-75
2021/10/29 07:03:29;;;;;;;51.97;46.80;;;5.20;99.90;;;;;;5069607;28;20446;-77
2021/10/29 07:12:00;;;;;;;48.33;43.93;;;5.40;99.90;;;;;;5073791;28;20485;-77
2021/10/29 07:41:59;;;;;;;28.17;26.07;;;7.30;99.90;;;;;;5048478;28;20279;-79
2021/10/29 07:44:28;;;;;;;22.77;21.27;;;8.10;99.90;;;;;;5073474;28;20470;-78
2021/10/29 07:46:55;;;;;;;23.00;21.27;;;8.80;99.90;;;;;;5073007;28;20443;-76
2021/10/29 07:49:27;;;;;;;22.07;20.47;;;9.20;99.90;;;;;;5072901;28;20442;-78
2021/10/29 07:51:54;;;;;;;21.00;19.60;;;9.20;99.90;;;;;;5072848;28;20907;-80
2021/10/29 07:54:21;;;;;;;21.00;19.70;;;9.10;99.90;;;;;;5073019;28;20482;-82
2021/10/29 07:56:47;;;;;;;20.77;19.10;;;9.10;99.90;;;;;;5073224;28;20458;-81
2021/10/29 07:59:14;;;;;;;21.10;19.53;;;9.10;99.90;;;;;;5073194;28;20470;-83
2021/10/29 08:01:41;;;;;;;22.07;20.20;;;9.10;99.90;;;;;;5072913;28;20500;-75
2021/10/29 08:04:08;;;;;;;20.70;19.20;;;9.00;99.90;;;;;;5073025;28;20445;-77
2021/10/29 08:06:50;;;;;;;21.47;19.83;;;8.90;99.90;;;;;;5072876;28;20995;-78
2021/10/29 08:09:16;;;;;;;20.97;19.20;;;9.10;99.90;;;;;;5073571;28;20435;-76
2021/10/29 08:11:43;;;;;;;22.17;20.57;;;9.50;99.90;;;;;;5072342;28;20487;-76
2021/10/29 08:14:10;;;;;;;18.10;16.73;;;9.80;99.90;;;;;;5072374;28;20439;-77
2021/10/29 08:16:36;;;;;;;18.90;17.57;;;10.10;99.90;;;;;;5073016;28;20478;-83
2021/10/29 08:19:03;;;;;;;20.30;18.90;;;10.30;99.90;;;;;;5073056;28;20936;-81
2021/10/29 08:21:30;;;;;;;20.30;19.00;;;10.50;99.90;;;;;;5073296;28;20824;-75
2021/10/29 08:23:58;;;;;;;21.47;19.87;;;10.20;99.90;;;;;;5072522;28;20471;-78
2021/10/29 08:26:25;;;;;;;19.57;18.07;;;10.10;99.90;;;;;;5072151;28;20738;-78
2021/10/29 08:28:52;;;;;;;20.90;19.43;;;10.50;99.90;;;;;;5072332;28;20459;-78
2021/10/29 08:31:19;;;;;;;20.13;18.77;;;10.90;99.90;;;;;;5070616;28;20490;-78
2021/10/29 08:33:46;;;;;;;22.00;20.50;;;11.00;99.90;;;;;;5072218;28;20517;-78
2021/10/29 08:36:14;;;;;;;21.30;19.90;;;11.30;99.90;;;;;;5071760;28;20450;-78
2021/10/29 08:38:41;;;;;;;22.37;20.57;;;11.00;99.90;;;;;;5071740;28;20830;-77
2021/10/29 08:41:09;;;;;;;21.33;19.83;;;10.50;99.90;;;;;;5071728;28;20557;-78
2021/10/29 08:43:36;;;;;;;22.00;20.53;;;10.50;99.90;;;;;;5071725;28;20476;-77
2021/10/29 08:46:04;;;;;;;22.60;20.97;;;10.50;99.90;;;;;;5071636;28;20447;-77
2021/10/29 08:48:35;;;;;;;22.40;20.80;;;10.30;99.90;;;;;;5071833;28;20451;-76
2021/10/29 08:51:01;;;;;;;24.17;22.43;;;9.80;99.90;;;;;;5071522;28;20455;-77
2021/10/29 08:53:28;;;;;;;25.27;23.27;;;9.50;99.90;;;;;;5071411;28;20494;-76
2021/10/29 08:56:00;;;;;;;25.07;23.07;;;9.80;99.90;;;;;;5071830;28;20451;-78
2021/10/29 08:58:29;;;;;;;24.63;22.37;;;10.20;99.90;;;;;;5071263;28;20446;-77
2021/10/29 09:01:01;;;;;;;23.87;21.77;;;10.70;99.90;;;;;;5071403;28;20451;-76
2021/10/29 09:03:32;;;;;;;23.50;21.70;;;11.20;99.90;;;;;;5071139;28;20976;-76
2021/10/29 09:06:15;;;;;;;23.63;21.73;;;11.90;99.90;;;;;;5071118;28;20435;-77
2021/10/29 09:08:52;;;;;;;24.00;22.00;;;12.80;99.90;;;;;;5071242;28;20459;-77
2021/10/29 09:11:40;;;;;;;24.17;22.43;;;13.30;99.90;;;;;;5070847;28;20534;-78
2021/10/29 09:17:11;;;;;;;23.50;21.80;;;13.50;99.90;;;;;;5063869;28;20920;-77
2021/10/29 09:31:27;;;;;;;23.10;21.20;;;14.90;99.90;;;;;;5070873;28;20438;-77
2021/10/29 09:33:57;;;;;;;20.57;19.07;;;15.10;99.90;;;;;;5070782;28;20551;-78
2021/10/29 09:36:28;;;;;;;21.47;19.97;;;15.20;99.90;;;;;;5070553;28;20475;-78
2021/10/29 09:39:00;;;;;;;20.90;19.60;;;15.50;99.90;;;;;;5071391;28;20902;-78
2021/10/29 09:41:27;;;;;;;24.00;22.20;;;15.30;99.90;;;;;;5071493;28;20439;-78
2021/10/29 09:43:59;;;;;;;23.00;21.40;;;15.20;99.90;;;;;;5071041;28;20538;-78
2021/10/29 09:46:34;;;;;;;24.17;22.50;;;15.30;99.90;;;;;;5071714;28;20496;-83
2021/10/29 09:49:10;;;;;;;26.50;24.30;;;15.30;99.90;;;;;;5071590;28;20535;-81
2021/10/29 09:51:48;;;;;;;26.33;24.10;;;15.60;99.90;;;;;;5072429;28;20504;-78
2021/10/29 09:54:16;;;;;;;27.00;24.67;;;15.90;99.90;;;;;;5071412;28;20550;-75
2021/10/29 09:56:52;;;;;;;28.30;25.23;;;16.10;99.90;;;;;;5070999;28;20450;-74
2021/10/29 09:59:19;;;;;;;28.20;25.97;;;16.00;99.90;;;;;;5075597;28;20469;-75
2021/10/29 10:01:48;;;;;;;26.47;24.57;;;15.70;99.90;;;;;;5091468;28;20445;-76
2021/10/29 10:04:17;;;;;;;26.57;24.43;;;16.00;99.90;;;;;;5091310;28;20438;-76
2021/10/29 10:06:45;;;;;;;27.30;25.20;;;15.70;99.90;;;;;;5090970;28;20473;-76
2021/10/29 10:09:12;;;;;;;26.70;24.67;;;15.00;99.90;;;;;;5091174;28;20446;-76
2021/10/29 10:11:41;;;;;;;24.77;22.67;;;14.80;99.90;;;;;;5091122;28;20446;-76
2021/10/29 10:14:09;;;;;;;24.50;22.67;;;14.90;99.90;;;;;;5091222;28;20446;-76
2021/10/29 10:16:39;;;;;;;24.10;22.30;;;14.80;99.90;;;;;;5091057;28;20457;-77
2021/10/29 10:19:07;;;;;;;26.03;24.03;;;14.90;99.90;;;;;;5090929;28;20446;-77
2021/10/29 10:21:40;;;;;;;25.23;23.03;;;15.40;99.90;;;;;;5091157;28;20452;-73
2021/10/29 10:24:11;;;;;;;23.50;21.80;;;15.90;99.90;;;;;;5090614;28;20485;-75
2021/10/29 10:26:56;;;;;;;25.50;23.50;;;16.00;99.90;;;;;;5090797;28;20478;-75
2021/10/29 10:44:07;;;;;;;24.67;22.27;;;17.40;99.90;;;;;;5091874;28;20433;-76
2021/10/29 10:46:38;;;;;;;24.10;22.40;;;17.70;99.90;;;;;;5092557;28;20458;-75
2021/10/29 10:49:22;;;;;;;22.83;21.33;;;17.90;99.90;;;;;;5094699;28;20489;-76
2021/10/29 10:52:04;;;;;;;25.53;23.70;;;18.00;99.70;;;;;;5092194;28;20493;-75
2021/10/29 10:54:37;;;;;;;26.03;24.07;;;17.70;99.90;;;;;;5094581;28;20446;-76
2021/10/29 10:57:17;;;;;;;23.80;21.93;;;17.90;99.90;;;;;;5094427;28;20442;-76
2021/10/29 11:11:14;;;;;;;25.57;23.63;;;18.20;99.10;;;;;;5093983;28;20446;-76
2021/10/29 11:13:53;;;;;;;22.57;20.80;;;18.40;99.20;;;;;;5093889;28;20509;-76
2021/10/29 11:16:37;;;;;;;24.13;22.50;;;18.70;98.70;;;;;;5094110;28;20454;-77
2021/10/29 11:19:11;;;;;;;23.87;22.33;;;19.00;98.00;;;;;;5094055;28;20516;-77
2021/10/29 11:21:47;;;;;;;24.37;22.80;;;19.30;97.50;;;;;;5093907;28;20461;-76
2021/10/29 11:24:17;;;;;;;25.07;23.13;;;19.40;96.90;;;;;;5093865;28;20457;-76
2021/10/29 11:26:46;;;;;;;25.13;23.30;;;19.20;97.50;;;;;;5093689;28;20535;-76
2021/10/29 11:29:15;;;;;;;24.10;22.57;;;19.20;97.50;;;;;;5093869;28;20793;-76
2021/10/29 11:31:44;;;;;;;23.27;21.47;;;19.60;96.90;;;;;;5093675;28;20545;-76
2021/10/29 11:34:15;;;;;;;24.47;22.13;;;19.70;96.30;;;;;;5093461;28;20950;-76
2021/10/29 11:36:43;;;;;;;23.93;22.33;;;20.00;95.90;;;;;;5093400;28;20503;-75
2021/10/29 11:39:12;;;;;;;25.90;23.90;;;20.60;94.50;;;;;;5093491;28;20438;-76
2021/10/29 11:41:42;;;;;;;23.33;21.60;;;20.50;94.40;;;;;;5093385;28;21173;-77
2021/10/29 11:44:12;;;;;;;24.90;23.07;;;20.40;94.20;;;;;;5093382;28;20434;-76
2021/10/29 11:46:40;;;;;;;23.27;21.80;;;20.40;94.70;;;;;;5093210;28;20450;-76
2021/10/29 11:49:09;;;;;;;22.13;20.73;;;20.30;94.10;;;;;;5090650;28;20458;-77
2021/10/29 11:51:38;;;;;;;23.27;21.70;;;19.90;94.70;;;;;;5092203;28;20450;-76
2021/10/29 11:54:13;;;;;;;22.40;20.67;;;20.10;94.40;;;;;;5092938;28;20504;-76
2021/10/29 11:56:46;;;;;;;23.27;21.73;;;20.20;94.90;;;;;;5092259;28;20806;-76
2021/10/29 12:07:30;;;;;;;20.97;19.63;;;20.90;92.30;;;;;;5086312;28;20818;-79
2021/10/29 12:10:03;;;;;;;21.77;20.27;;;20.60;91.60;;;;;;5093428;28;20450;-78
2021/10/29 12:12:32;;;;;;;21.47;19.87;;;20.10;92.90;;;;;;5093100;28;20484;-77
2021/10/29 12:15:06;;;;;;;22.97;21.30;;;20.20;93.50;;;;;;5092902;28;20443;-79
2021/10/29 12:17:35;;;;;;;21.87;20.53;;;20.10;93.40;;;;;;5092851;28;20444;-81
2021/10/29 12:20:05;;;;;;;22.53;21.07;;;20.10;92.90;;;;;;5092567;28;20454;-80
2021/10/29 12:22:37;;;;;;;22.17;20.87;;;20.10;93.90;;;;;;5090932;28;20446;-80
2021/10/29 12:25:13;;;;;;;22.20;20.60;;;19.70;94.20;;;;;;5092907;28;20483;-79
2021/10/29 12:27:45;;;;;;;23.77;22.23;;;19.70;94.80;;;;;;5092825;28;20509;-79
2021/10/29 12:33:18;;;;;;;21.77;20.30;;;19.50;94.50;;;;;;5090334;28;20474;-80
2021/10/29 13:01:28;;;;;;;21.23;19.73;;;19.00;94.20;;;;;;5091964;28;20422;-78
2021/10/29 13:03:57;;;;;;;21.03;19.53;;;18.50;94.10;;;;;;5091923;28;20991;-79
2021/10/29 13:06:29;;;;;;;17.80;16.50;;;18.20;94.50;;;;;;5091116;28;20454;-79
2021/10/29 13:08:56;;;;;;;20.20;18.90;;;18.20;94.40;;;;;;5091219;28;20453;-79
2021/10/29 13:11:25;;;;;;;18.97;17.67;;;18.10;95.10;;;;;;5091890;28;20819;-78
2021/10/29 13:13:56;;;;;;;25.27;21.10;;;18.00;95.00;;;;;;5091690;28;20485;-79
2021/10/29 13:16:26;;;;;;;18.43;17.47;;;17.80;96.30;;;;;;5091613;28;20940;-79
2021/10/29 13:19:08;;;;;;;20.87;19.27;;;17.70;95.80;;;;;;5090325;28;20995;-78
2021/10/29 13:52:17;;;;;;;19.97;18.13;;;17.20;97.20;;;;;;5091068;28;20422;-79
2021/10/29 13:54:51;;;;;;;19.77;18.07;;;17.10;97.10;;;;;;5091168;28;20437;-78
2021/10/29 13:57:37;;;;;;;18.67;17.40;;;17.10;97.00;;;;;;5091232;28;20449;-78
2021/10/29 14:03:07;;;;;;;18.43;16.83;;;16.90;96.90;;;;;;5091204;28;20503;-78
2021/10/29 14:16:56;;;;;;;17.30;16.10;;;16.80;96.10;;;;;;5090912;28;20429;-78
2021/10/29 14:30:22;;;;;;;17.97;16.47;;;16.90;97.30;;;;;;5090691;28;20438;-77
2021/10/29 14:32:52;;;;;;;17.80;16.70;;;16.90;97.50;;;;;;5090474;28;20482;-77
2021/10/29 14:35:23;;;;;;;18.23;16.87;;;16.80;97.60;;;;;;5090157;28;20447;-76
2021/10/29 14:38:03;;;;;;;17.83;16.80;;;16.70;97.90;;;;;;5090547;28;20560;-76
2021/10/29 14:40:32;;;;;;;17.23;15.97;;;16.70;98.30;;;;;;5090520;28;20860;-77
2021/10/29 14:43:04;;;;;;;16.00;14.90;;;16.60;98.10;;;;;;5090382;28;20457;-77
2021/10/29 14:45:34;;;;;;;16.80;15.70;;;16.50;98.60;;;;;;5087889;28;20469;-77
2021/10/29 14:48:10;;;;;;;17.40;16.40;;;16.50;98.60;;;;;;5090238;28;20457;-77
2021/10/29 15:15:51;;;;;;;18.33;17.10;;;16.20;98.80;;;;;;5090476;28;20626;-77
2021/10/29 15:18:27;;;;;;;17.80;16.60;;;16.10;99.30;;;;;;5090430;28;20873;-77
2021/10/29 15:29:17;;;;;;;19.50;17.87;;;15.90;99.90;;;;;;5090303;28;20433;-76
2021/10/29 15:43:01;;;;;;;19.90;18.30;;;14.90;99.90;;;;;;5073817;28;20845;-78
2021/10/29 15:45:35;;;;;;;20.20;18.57;;;14.80;99.90;;;;;;5073552;28;20992;-77
2021/10/29 15:48:06;;;;;;;20.13;18.23;;;14.60;99.90;;;;;;5073246;28;20493;-77
2021/10/29 15:50:35;;;;;;;20.00;18.50;;;14.50;99.90;;;;;;5073209;28;20447;-77
2021/10/29 15:53:02;;;;;;;19.37;17.97;;;14.50;99.90;;;;;;5073334;28;20487;-78
2021/10/29 15:55:35;;;;;;;19.43;17.97;;;14.40;99.90;;;;;;5073274;28;20466;-77
2021/10/29 15:58:13;;;;;;;19.63;18.13;;;14.30;99.90;;;;;;5073210;28;20490;-77
2021/10/29 16:00:51;;;;;;;19.23;17.63;;;14.20;99.90;;;;;;5072892;28;20549;-78
2021/10/29 16:03:23;;;;;;;18.70;17.17;;;14.00;99.90;;;;;;5072870;28;21212;-77
2021/10/29 16:17:09;;;;;;;19.10;17.37;;;13.20;99.90;;;;;;5092893;28;20806;-77
2021/10/29 16:19:37;;;;;;;19.03;17.20;;;13.00;99.90;;;;;;5092667;28;20454;-77
2021/10/29 16:22:10;;;;;;;18.10;16.67;;;12.80;99.90;;;;;;5092936;28;20452;-77
2021/10/29 16:24:41;;;;;;;18.73;17.40;;;12.80;99.90;;;;;;5092734;28;20473;-77
2021/10/29 16:27:09;;;;;;;18.43;16.93;;;12.60;99.90;;;;;;5092533;28;20482;-77
2021/10/29 16:29:37;;;;;;;18.70;17.30;;;12.60;99.90;;;;;;5092557;28;20549;-77
2021/10/29 16:32:13;;;;;;;18.67;17.17;;;12.60;99.90;;;;;;5092346;28;20819;-77
2021/10/29 16:34:40;;;;;;;19.73;18.10;;;12.60;99.90;;;;;;5092273;28;20481;-77
2021/10/29 16:37:07;;;;;;;18.10;16.63;;;12.50;99.90;;;;;;5092317;28;20461;-77
2021/10/29 16:39:34;;;;;;;19.73;18.00;;;12.50;99.90;;;;;;5092444;28;20446;-77